createdAt,value
2018-07-11T00:01:14.123Z,14.30
2018-07-11T00:03:47.924Z,14.30
2018-07-11T00:06:16.332Z,14.30
2018-07-11T00:08:43.693Z,14.30
2018-07-11T00:11:11.772Z,14.30
2018-07-11T00:13:40.113Z,14.30
2018-07-11T00:16:07.495Z,14.40
2018-07-11T00:18:35.039Z,14.30
2018-07-11T00:21:02.757Z,14.20
2018-07-11T00:23:30.451Z,14.20
2018-07-11T00:25:57.798Z,14.20
2018-07-11T00:28:25.151Z,14.30
2018-07-11T00:30:52.537Z,14.30
2018-07-11T00:33:21.647Z,14.40
2018-07-11T00:35:49.196Z,14.40
2018-07-11T00:38:16.669Z,14.60
2018-07-11T00:40:44.101Z,14.50
2018-07-11T00:43:11.580Z,14.50
2018-07-11T00:45:39.152Z,14.50
2018-07-11T00:48:06.639Z,14.50
2018-07-11T00:50:34.193Z,14.50
2018-07-11T00:53:02.270Z,14.40
2018-07-11T00:55:29.732Z,14.30
2018-07-11T00:58:00.944Z,14.40
2018-07-11T01:00:28.267Z,14.40
2018-07-11T01:02:55.705Z,14.40
2018-07-11T01:05:23.064Z,14.40
2018-07-11T01:07:50.367Z,14.40
2018-07-11T01:10:17.778Z,14.50
2018-07-11T01:12:45.169Z,14.60
2018-07-11T01:15:12.480Z,14.60
2018-07-11T01:17:46.170Z,14.60
2018-07-11T01:20:13.924Z,14.50
2018-07-11T01:22:41.293Z,14.50
2018-07-11T01:25:08.707Z,14.40
2018-07-11T01:27:35.968Z,14.40
2018-07-11T01:30:03.332Z,14.40
2018-07-11T01:32:30.732Z,14.40
2018-07-11T01:34:58.046Z,14.40
2018-07-11T01:37:25.304Z,14.40
2018-07-11T01:39:52.659Z,14.50
2018-07-11T01:42:19.997Z,14.60
2018-07-11T01:44:47.292Z,14.60
2018-07-11T01:47:14.587Z,14.60
2018-07-11T01:49:42.747Z,14.60
2018-07-11T01:52:21.559Z,14.60
2018-07-11T01:54:49.169Z,14.50
2018-07-11T01:57:16.508Z,14.50
2018-07-11T01:59:43.848Z,14.60
2018-07-11T02:02:11.252Z,14.60
2018-07-11T02:04:39.047Z,14.50
2018-07-11T02:07:07.269Z,14.60
2018-07-11T02:09:34.628Z,14.60
2018-07-11T02:12:02.055Z,14.70
2018-07-11T02:14:29.501Z,14.70
2018-07-11T02:16:57.160Z,14.70
2018-07-11T02:19:24.605Z,14.70
2018-07-11T02:21:52.289Z,14.60
2018-07-11T02:24:20.638Z,14.70
2018-07-11T02:26:47.997Z,14.60
2018-07-11T02:29:15.347Z,14.70
2018-07-11T02:31:42.602Z,14.70
2018-07-11T02:34:10.101Z,14.70
2018-07-11T02:36:37.457Z,14.70
2018-07-11T02:39:05.278Z,14.70
2018-07-11T02:41:32.638Z,14.70
2018-07-11T02:44:00.028Z,14.70
2018-07-11T02:46:33.164Z,14.70
2018-07-11T02:49:00.502Z,14.70
2018-07-11T02:51:27.880Z,14.70
2018-07-11T02:53:55.268Z,14.80
2018-07-11T02:56:22.578Z,14.80
2018-07-11T02:58:49.896Z,14.80
2018-07-11T03:01:17.276Z,14.70
2018-07-11T03:03:44.653Z,14.80
2018-07-11T03:06:12.043Z,14.80
2018-07-11T03:08:39.316Z,14.80
2018-07-11T03:11:06.598Z,14.80
2018-07-11T03:13:34.302Z,14.80
2018-07-11T03:16:01.769Z,14.80
2018-07-11T03:18:30.064Z,14.80
2018-07-11T03:20:57.495Z,14.80
2018-07-11T03:23:24.861Z,14.70
2018-07-11T03:25:52.315Z,14.70
2018-07-11T03:28:19.745Z,14.70
2018-07-11T03:30:47.169Z,14.80
2018-07-11T03:33:14.486Z,14.80
2018-07-11T03:35:41.818Z,14.70
2018-07-11T03:38:09.166Z,14.70
2018-07-11T03:40:36.533Z,14.70
2018-07-11T03:43:03.898Z,14.80
2018-07-11T03:45:31.260Z,14.80
2018-07-11T03:47:58.547Z,14.80
2018-07-11T03:50:25.938Z,14.90
2018-07-11T03:52:53.201Z,14.80
2018-07-11T03:55:20.500Z,14.90
2018-07-11T03:57:47.743Z,14.90
2018-07-11T04:00:15.003Z,14.80
2018-07-11T04:02:42.347Z,14.80
2018-07-11T04:05:09.689Z,14.70
2018-07-11T04:07:37.074Z,14.80
2018-07-11T04:10:04.559Z,14.90
2018-07-11T04:12:31.844Z,15.00
2018-07-11T04:14:59.143Z,15.10
2018-07-11T04:17:26.554Z,15.30
2018-07-11T04:19:54.225Z,15.30
2018-07-11T04:22:21.531Z,15.30
2018-07-11T04:24:48.934Z,15.40
2018-07-11T04:27:16.193Z,15.40
2018-07-11T04:29:43.563Z,15.40
2018-07-11T04:32:10.978Z,15.40
2018-07-11T04:34:38.365Z,15.40
2018-07-11T04:37:05.718Z,15.40
2018-07-11T04:39:33.099Z,15.40
2018-07-11T04:42:00.471Z,15.40
2018-07-11T04:44:27.785Z,15.40
2018-07-11T04:46:55.223Z,15.50
2018-07-11T04:49:22.602Z,15.50
2018-07-11T04:51:50.237Z,15.60
2018-07-11T04:54:17.704Z,15.50
2018-07-11T04:56:45.018Z,15.60
2018-07-11T04:59:12.320Z,15.60
2018-07-11T05:01:40.448Z,15.60
2018-07-11T05:04:07.783Z,15.70
2018-07-11T05:06:35.098Z,15.80
2018-07-11T05:09:02.514Z,15.80
2018-07-11T05:11:29.830Z,15.90
2018-07-11T05:13:57.120Z,16.00
2018-07-11T05:16:24.452Z,16.00
2018-07-11T05:18:51.841Z,16.00
2018-07-11T05:21:19.180Z,15.90
2018-07-11T05:23:46.535Z,16.00
2018-07-11T05:26:13.894Z,16.10
2018-07-11T05:28:41.225Z,16.20
2018-07-11T05:31:08.487Z,16.30
2018-07-11T05:33:35.763Z,16.40
2018-07-11T05:36:03.113Z,16.50
2018-07-11T05:38:30.495Z,16.50
2018-07-11T05:40:57.890Z,16.60
2018-07-11T05:43:25.211Z,16.70
2018-07-11T05:45:52.614Z,16.80
2018-07-11T05:48:21.187Z,16.80
2018-07-11T05:50:48.489Z,16.90
2018-07-11T05:53:15.850Z,17.00
2018-07-11T05:55:43.218Z,17.20
2018-07-11T05:58:10.543Z,17.60
2018-07-11T06:00:37.884Z,17.90
2018-07-11T06:03:05.233Z,18.10
2018-07-11T06:05:32.555Z,18.10
2018-07-11T06:07:59.863Z,18.00
2018-07-11T06:10:27.242Z,18.00
2018-07-11T06:12:54.548Z,17.80
2018-07-11T06:15:21.944Z,17.90
2018-07-11T06:20:16.623Z,18.70
2018-07-11T06:22:43.908Z,18.80
2018-07-11T06:25:11.181Z,19.10
2018-07-11T06:27:38.536Z,19.30
2018-07-11T06:30:07.567Z,19.50
2018-07-11T06:32:34.841Z,19.60
2018-07-11T06:35:02.157Z,19.50
2018-07-11T06:37:29.493Z,19.60
2018-07-11T06:39:56.788Z,19.80
2018-07-11T06:42:24.271Z,20.10
2018-07-11T06:44:51.600Z,20.20
2018-07-11T06:47:18.946Z,20.20
2018-07-11T06:49:47.129Z,20.40
2018-07-11T06:52:15.123Z,23.00
2018-07-11T06:54:42.412Z,23.00
2018-07-11T06:57:09.655Z,23.50
2018-07-11T06:59:37.061Z,23.50
2018-07-11T07:02:04.822Z,23.20
2018-07-11T07:06:59.714Z,24.10
2018-07-11T07:09:27.043Z,24.80
2018-07-11T07:11:54.694Z,25.40
2018-07-11T07:14:22.441Z,26.30
2018-07-11T07:16:49.816Z,26.10
2018-07-11T07:19:17.095Z,25.70
2018-07-11T07:21:44.444Z,24.40
2018-07-11T07:24:11.823Z,24.80
2018-07-11T07:26:39.081Z,24.40
2018-07-11T07:29:06.447Z,24.60
2018-07-11T07:31:33.807Z,24.30
2018-07-11T07:34:01.257Z,24.20
2018-07-11T07:36:28.607Z,23.60
2018-07-11T07:38:56.045Z,24.90
2018-07-11T07:41:23.430Z,25.90
2018-07-11T19:24:54.759Z,28.00
2018-07-11T19:27:33.594Z,20.50
2018-07-11T19:30:10.496Z,20.30
2018-07-11T19:33:48.249Z,20.20
2018-07-11T19:36:35.554Z,20.10
2018-07-11T19:39:11.797Z,20.10
2018-07-11T19:41:48.132Z,20.00
2018-07-11T19:44:25.032Z,20.10
2018-07-11T19:47:25.415Z,20.00
2018-07-11T19:49:56.257Z,20.00
2018-07-11T19:55:41.844Z,20.00
2018-07-11T19:58:09.125Z,20.00
2018-07-11T20:00:36.439Z,19.80
2018-07-11T20:03:03.755Z,19.70
2018-07-11T20:05:31.167Z,19.60
2018-07-11T20:07:58.486Z,19.30
2018-07-11T20:10:25.985Z,19.30
2018-07-11T20:12:53.345Z,19.20
2018-07-11T20:15:20.699Z,19.20
2018-07-11T20:17:48.430Z,19.10
2018-07-11T20:20:15.867Z,19.10
2018-07-11T20:22:43.394Z,19.00
2018-07-11T20:25:10.701Z,18.90
2018-07-11T20:27:38.346Z,18.60
2018-07-11T20:30:06.018Z,18.40
2018-07-11T20:32:33.356Z,18.20
2018-07-11T20:35:00.727Z,18.10
2018-07-11T20:37:28.085Z,18.00
2018-07-11T20:39:55.512Z,18.00
2018-07-11T20:42:23.187Z,18.00
2018-07-11T20:44:50.874Z,18.10
2018-07-11T20:47:18.297Z,18.20
2018-07-11T20:49:45.831Z,18.10
2018-07-11T20:52:13.260Z,18.00
2018-07-11T20:54:40.712Z,17.90
2018-07-11T20:57:08.072Z,17.60
2018-07-11T20:59:47.650Z,17.20
2018-07-11T21:02:26.491Z,16.70
2018-07-11T21:06:10.246Z,16.30
2018-07-11T21:09:46.902Z,16.10
2018-07-11T21:14:36.755Z,15.70
2018-07-11T21:19:12.840Z,15.70
2018-07-11T21:21:41.085Z,15.80
2018-07-11T21:24:09.308Z,15.80
2018-07-11T21:26:37.254Z,15.80
2018-07-11T21:29:04.607Z,15.70
2018-07-11T21:31:32.033Z,15.70
2018-07-11T21:33:59.419Z,15.60
2018-07-11T21:36:27.188Z,15.50
2018-07-11T21:38:55.333Z,15.40
2018-07-11T21:41:22.637Z,15.40
2018-07-11T21:43:50.040Z,15.40
2018-07-11T21:46:17.943Z,15.40
2018-07-11T21:48:45.313Z,15.50
2018-07-11T21:51:12.618Z,15.50
2018-07-11T21:53:39.984Z,15.40
2018-07-11T21:56:07.473Z,15.50
2018-07-11T21:58:34.820Z,15.50
2018-07-11T22:01:04.569Z,15.40
2018-07-11T22:03:31.969Z,15.50
2018-07-11T22:05:59.324Z,15.50
2018-07-11T22:08:27.017Z,15.50
2018-07-11T22:10:54.326Z,15.50
2018-07-11T22:13:21.804Z,15.50
2018-07-11T22:15:49.193Z,15.50
2018-07-11T22:18:28.112Z,15.50
2018-07-11T22:20:54.510Z,15.40
2018-07-11T22:23:20.886Z,15.40
2018-07-11T22:25:47.277Z,15.40
2018-07-11T22:28:13.668Z,15.40
2018-07-11T22:30:40.289Z,15.40
2018-07-11T22:33:06.665Z,15.30
2018-07-11T22:35:33.131Z,15.30
2018-07-11T22:37:59.523Z,15.30
2018-07-11T22:40:25.892Z,15.30
2018-07-11T22:42:52.587Z,15.30
2018-07-11T22:45:18.920Z,15.40
2018-07-11T22:47:45.303Z,15.40
2018-07-11T22:50:11.655Z,15.30
2018-07-11T22:52:38.168Z,15.30
2018-07-11T22:55:04.808Z,15.30
2018-07-11T22:57:31.242Z,15.20
2018-07-11T22:59:57.604Z,15.20
2018-07-11T23:02:23.988Z,15.20
2018-07-11T23:04:50.383Z,15.30
2018-07-11T23:07:16.713Z,15.30
2018-07-11T23:09:43.155Z,15.30
2018-07-11T23:12:10.093Z,15.30
2018-07-11T23:14:36.473Z,15.30
2018-07-11T23:17:03.536Z,15.40
2018-07-11T23:19:30.253Z,15.40
2018-07-11T23:21:56.894Z,15.40
2018-07-11T23:24:23.614Z,15.40
2018-07-11T23:26:50.066Z,15.40
2018-07-11T23:29:16.465Z,15.40
2018-07-11T23:31:42.885Z,15.50
2018-07-11T23:34:09.566Z,15.40
2018-07-11T23:36:35.923Z,15.50
2018-07-11T23:39:02.664Z,15.50
2018-07-11T23:41:29.116Z,15.40
2018-07-11T23:43:55.447Z,15.40
2018-07-11T23:46:21.985Z,15.40
2018-07-11T23:48:48.336Z,15.40
2018-07-11T23:51:14.706Z,15.40
2018-07-11T23:53:41.150Z,15.40
2018-07-11T23:56:07.570Z,15.40
2018-07-11T23:58:33.955Z,15.40
